Time;durP1;ratioP1;P1;durP2;ratioP2;P2;SDS_P1;SDS_P2;PMS_P1;PMS_P2;Temp;Humidity;BMP_temperature;BMP_pressure;BME280_temperature;BME280_humidity;BME280_pressure;Samples;Min_cycle;Max_cycle;Signal;HPM_P1;HPM_P2
2021/12/24 00:01:52;;;;;;;1.48;1.38;;;20.00;39.10;;;23.66;26.08;99527.34;5097432;28;20069;-77
2021/12/24 00:04:18;;;;;;;1.50;1.40;;;20.00;39.10;;;23.63;25.88;99524.97;5097162;28;20087;-77
2021/12/24 00:06:44;;;;;;;1.50;1.40;;;19.90;39.00;;;23.63;25.95;99524.97;5080096;28;20082;-77
2021/12/24 00:09:20;;;;;;;1.48;1.38;;;20.00;39.10;;;23.62;25.94;99523.31;5097240;28;20046;-77
2021/12/24 00:11:45;;;;;;;2.38;1.58;;;19.90;39.60;;;23.61;25.88;99518.94;5081812;28;20428;-77
2021/12/24 00:14:11;;;;;;;1.40;1.23;;;20.00;39.10;;;23.64;25.94;99531.16;5097305;28;20085;-77
2021/12/24 00:16:42;;;;;;;1.42;1.30;;;20.00;39.10;;;23.63;25.99;99524.13;5095373;28;20491;-77
2021/12/24 00:35:30;;;;;;;1.48;1.38;;;19.90;39.10;;;23.57;26.01;99519.38;5099505;28;20056;-77
2021/12/24 00:38:01;;;;;;;1.88;1.40;;;20.00;39.10;;;23.59;26.06;99520.91;5115234;28;20048;-77
2021/12/24 00:40:27;;;;;;;1.30;1.20;;;19.90;39.10;;;23.61;26.03;99528.78;5080238;28;20047;-77
2021/12/24 00:42:56;;;;;;;1.50;1.40;;;19.90;39.10;;;23.59;26.04;99525.41;5079790;28;20090;-77
2021/12/24 00:45:34;;;;;;;1.77;1.67;;;19.90;39.10;;;23.59;25.95;99528.06;5096459;28;20135;-77
2021/12/24 00:48:02;;;;;;;1.52;1.40;;;19.90;39.20;;;23.60;26.04;99519.09;5078917;28;20479;-77
2021/12/24 00:50:48;;;;;;;1.48;1.38;;;19.90;39.10;;;23.56;26.23;99521.22;5114577;28;20077;-77
2021/12/24 00:55:05;;;;;;;1.70;1.60;;;19.90;39.10;;;23.59;26.26;99531.59;5081547;28;20097;-77
2021/12/24 00:56:13;;;;;;;1.67;1.58;;;19.90;39.10;;;23.58;26.09;99535.25;5082111;28;20142;-77
2021/12/24 00:58:39;;;;;;;1.75;1.63;;;19.90;39.20;;;23.59;26.01;99531.59;5079453;28;20050;-77
2021/12/24 01:01:08;;;;;;;1.33;1.23;;;19.90;39.10;;;23.60;26.13;99535.09;5079027;28;20134;-77
2021/12/24 01:03:35;;;;;;;1.20;1.10;;;19.90;39.10;;;23.57;25.97;99522.91;5079234;28;20044;-77
2021/12/24 01:06:02;;;;;;;1.63;1.50;;;19.90;39.10;;;23.62;25.91;99530.44;5062633;28;20040;-77
2021/12/24 01:08:28;;;;;;;1.73;1.55;;;19.90;39.10;;;23.58;25.97;99527.22;5060927;28;20114;-77
2021/12/24 01:10:58;;;;;;;1.33;1.23;;;20.00;39.20;;;23.59;25.83;99533.41;5096133;28;20071;-77
2021/12/24 01:13:28;;;;;;;1.73;1.57;;;19.90;39.10;;;23.59;26.04;99528.94;5079081;28;20039;-77
2021/12/24 01:18:37;;;;;;;1.58;1.30;;;19.90;39.10;;;23.58;25.95;99535.25;5078332;28;20058;-77
2021/12/24 01:21:20;;;;;;;1.50;1.40;;;19.90;39.10;;;23.55;25.96;99521.34;5078163;28;20477;-77
2021/12/24 01:23:52;;;;;;;1.30;1.20;;;19.90;39.20;;;23.57;26.09;99527.38;5081578;28;20467;-77
2021/12/24 01:26:44;;;;;;;1.50;1.40;;;19.90;39.10;;;23.56;25.98;99520.38;5079707;28;20071;-77
2021/12/24 01:40:08;;;;;;;1.30;1.20;;;19.90;39.20;;;23.56;25.91;99515.03;5081053;28;20070;-77
2021/12/24 01:42:47;;;;;;;1.45;1.35;;;19.90;39.20;;;23.56;25.85;99507.88;5113921;28;20047;-77
2021/12/24 01:45:24;;;;;;;1.15;1.10;;;19.90;39.20;;;23.55;26.10;99511.50;5080562;28;20372;-77
2021/12/24 01:47:52;;;;;;;1.42;1.23;;;19.90;39.20;;;23.55;26.20;99500.00;5095347;28;20134;-77
2021/12/24 01:50:21;;;;;;;1.60;1.50;;;19.90;39.20;;;23.54;26.09;99496.50;5078649;28;20479;-77
2021/12/24 01:52:49;;;;;;;1.30;1.20;;;19.90;39.20;;;23.55;25.97;99495.50;5095299;28;20047;-77
2021/12/24 01:55:18;;;;;;;1.38;1.27;;;19.90;39.20;;;23.57;26.04;99508.69;5077005;28;20052;-77
2021/12/24 01:57:45;;;;;;;1.33;1.23;;;19.90;39.20;;;23.54;26.22;99493.84;5061223;28;20047;-77
2021/12/24 02:00:16;;;;;;;1.50;1.40;;;19.90;39.20;;;23.53;26.03;99491.31;5077466;28;20077;-77
2021/12/24 02:02:44;;;;;;;1.63;1.52;;;19.90;39.20;;;23.54;26.04;99490.31;5095647;28;20653;-77
2021/12/24 02:05:10;;;;;;;1.42;1.33;;;19.90;39.20;;;23.54;26.06;99487.63;5095638;28;20055;-77
2021/12/24 02:07:38;;;;;;;1.77;1.35;;;19.90;39.20;;;23.53;26.05;99477.97;5078363;28;20044;-77
2021/12/24 02:10:11;;;;;;;1.48;1.38;;;19.90;39.20;;;23.54;25.92;99477.81;5109322;28;20040;-77
2021/12/24 02:12:39;;;;;;;1.52;1.42;;;19.90;39.20;;;23.57;26.05;99482.88;5076527;28;20384;-77
2021/12/24 02:15:15;;;;;;;1.50;1.40;;;19.90;39.10;;;23.54;26.04;99477.81;5076266;28;20048;-77
2021/12/24 02:18:14;;;;;;;1.27;1.10;;;19.90;39.20;;;23.54;25.97;99471.63;5079001;28;20077;-77
2021/12/24 02:28:18;;;;;;;1.13;1.02;;;19.90;39.20;;;23.55;26.16;99466.16;5080904;28;20044;-77
2021/12/24 02:29:08;;;;;;;1.15;1.05;;;19.90;39.20;;;23.53;26.08;99462.78;5080621;28;20095;-77
2021/12/24 02:31:34;;;;;;;1.38;1.25;;;19.90;39.20;;;23.51;26.11;99453.28;5078391;28;20043;-77
2021/12/24 02:34:01;;;;;;;1.30;1.20;;;19.90;39.20;;;23.52;25.91;99466.44;5093912;28;20096;-77
2021/12/24 02:36:28;;;;;;;1.38;1.27;;;19.90;39.20;;;23.53;26.07;99459.28;5078390;28;20479;-77
2021/12/24 02:38:55;;;;;;;1.20;1.10;;;19.90;39.20;;;23.52;26.11;99455.75;5092617;28;20044;-77
2021/12/24 02:41:21;;;;;;;1.40;1.30;;;19.90;39.20;;;23.55;26.08;99450.16;5077941;28;20055;-77
2021/12/24 02:43:48;;;;;;;0.90;0.90;;;19.90;39.20;;;23.53;26.28;99449.47;5061738;28;20047;-77
2021/12/24 02:46:26;;;;;;;1.42;1.20;;;19.80;39.20;;;23.54;26.10;99444.94;5094715;28;20135;-77
2021/12/24 02:54:11;;;;;;;1.33;1.23;;;19.90;39.20;;;23.54;26.02;99439.63;5080264;28;20474;-77
2021/12/24 02:56:40;;;;;;;1.38;1.27;;;19.90;39.20;;;23.54;26.19;99437.81;5077261;28;20506;-78
2021/12/24 02:59:13;;;;;;;0.93;0.93;;;19.90;39.20;;;23.55;26.30;99442.13;5077622;28;20048;-77
2021/12/24 03:01:48;;;;;;;1.40;1.30;;;19.90;39.20;;;23.54;26.22;99429.81;5095203;28;20054;-77
2021/12/24 03:04:15;;;;;;;1.33;1.23;;;19.90;39.10;;;23.57;26.11;99431.31;5078325;28;20067;-77
2021/12/24 03:06:46;;;;;;;1.10;1.10;;;19.90;39.10;;;23.55;26.00;99434.13;5112605;28;20051;-77
2021/12/24 03:09:16;;;;;;;1.42;1.30;;;19.90;39.10;;;23.57;26.13;99439.31;5077569;28;20048;-77
2021/12/24 03:11:43;;;;;;;1.30;1.20;;;20.00;39.10;;;23.56;26.23;99441.16;5077628;28;20043;-77
2021/12/24 03:14:10;;;;;;;1.33;1.23;;;20.00;39.10;;;23.59;26.24;99438.22;5077362;28;20437;-77
2021/12/24 03:16:37;;;;;;;1.40;1.30;;;20.00;39.00;;;23.59;26.03;99434.69;5060624;28;20043;-77
2021/12/24 03:19:05;;;;;;;1.33;1.23;;;20.00;39.00;;;23.63;26.11;99452.09;5076196;28;20441;-77
2021/12/24 03:21:51;;;;;;;1.20;1.10;;;20.00;39.00;;;23.62;26.06;99445.94;5112521;28;20050;-77
2021/12/24 03:26:47;;;;;;;1.30;1.20;;;20.10;39.00;;;23.66;26.28;99447.28;5116090;28;20108;-77
2021/12/24 03:29:17;;;;;;;1.23;1.13;;;20.10;38.90;;;23.67;25.90;99443.66;5080939;28;20067;-77
2021/12/24 03:31:44;;;;;;;1.00;1.00;;;20.10;38.90;;;23.70;26.09;99433.66;5080692;28;20096;-77
2021/12/24 03:34:15;;;;;;;1.30;1.20;;;20.10;38.90;;;23.70;25.99;99434.50;5096953;28;20078;-77
2021/12/24 03:36:42;;;;;;;1.23;1.10;;;20.10;38.90;;;23.67;26.00;99424.97;5081451;28;20168;-77
2021/12/24 03:39:10;;;;;;;1.30;1.20;;;20.10;38.90;;;23.72;26.13;99426.34;5079958;28;20044;-77
2021/12/24 03:41:36;;;;;;;1.58;1.48;;;20.10;38.90;;;23.70;26.06;99415.00;5097807;28;20066;-77
2021/12/24 03:44:06;;;;;;;1.50;1.17;;;20.10;38.80;;;23.72;25.83;99408.50;5097348;28;20120;-77
2021/12/24 03:46:42;;;;;;;0.90;0.90;;;20.20;38.90;;;23.74;25.89;99421.69;5097802;28;20048;-77
2021/12/24 03:49:17;;;;;;;1.55;1.40;;;20.20;38.80;;;23.78;26.03;99423.09;5098180;28;20040;-77
2021/12/24 03:51:52;;;;;;;1.10;1.10;;;20.20;38.80;;;23.73;25.93;99404.84;5097644;28;20052;-77
2021/12/24 03:57:03;;;;;;;1.13;1.02;;;20.20;38.80;;;23.76;25.97;99404.56;5083023;28;20047;-77
2021/12/24 04:00:13;;;;;;;0.90;0.90;;;20.20;38.80;;;23.80;26.18;99416.59;5101185;28;20047;-77
2021/12/24 04:02:47;;;;;;;1.23;1.13;;;20.20;38.80;;;23.81;26.06;99425.47;5081494;28;20402;-77
2021/12/24 04:05:32;;;;;;;1.20;1.10;;;20.20;38.80;;;23.84;26.06;99430.56;5086039;28;20122;-77
2021/12/24 04:08:17;;;;;;;1.10;1.00;;;20.20;38.80;;;23.80;26.02;99416.59;5099199;28;20438;-77
2021/12/24 04:10:59;;;;;;;1.30;1.20;;;20.30;38.80;;;23.80;25.88;99413.94;5067443;28;20059;-77
2021/12/24 04:13:34;;;;;;;1.30;1.20;;;20.30;38.80;;;23.82;26.04;99420.03;5081895;28;20040;-77
2021/12/24 04:16:01;;;;;;;1.20;1.10;;;20.30;38.80;;;23.79;25.93;99417.63;5096943;28;20051;-77
2021/12/24 04:26:30;;;;;;;1.40;1.30;;;20.30;38.80;;;23.84;25.96;99427.88;5082071;28;20457;-77
2021/12/24 04:28:56;;;;;;;1.60;1.50;;;20.30;38.80;;;23.84;25.96;99431.38;5079828;28;20071;-77
2021/12/24 04:31:29;;;;;;;1.05;1.02;;;20.30;38.80;;;23.84;25.82;99436.72;5078282;28;20055;-77
2021/12/24 04:34:14;;;;;;;1.40;1.23;;;20.30;38.80;;;23.85;25.88;99438.38;5095692;28;20043;-77
2021/12/24 04:37:08;;;;;;;1.30;1.20;;;20.30;38.80;;;23.88;25.85;99442.59;5079624;28;20048;-77
2021/12/24 04:53:24;;;;;;;1.20;1.10;;;20.30;38.70;;;23.90;25.70;99461.97;5082353;28;20399;-77
2021/12/24 05:01:23;;;;;;;1.30;1.20;;;20.30;38.70;;;23.90;25.88;99456.63;5082281;28;20386;-77
2021/12/24 05:03:51;;;;;;;1.30;1.20;;;20.30;38.70;;;23.89;25.87;99444.28;5096878;28;20124;-77
2021/12/24 05:08:55;;;;;;;1.33;1.23;;;20.30;38.80;;;23.86;26.02;99448.09;5078103;28;20437;-77
2021/12/24 05:11:23;;;;;;;1.13;1.02;;;20.30;38.70;;;23.92;25.80;99459.97;5080851;28;20069;-77
2021/12/24 05:13:52;;;;;;;1.45;1.35;;;20.30;38.70;;;23.91;25.83;99457.50;5079437;28;20430;-77
2021/12/24 05:16:50;;;;;;;1.10;1.05;;;20.30;38.80;;;23.91;25.84;99452.97;5114576;28;20497;-77
2021/12/24 05:22:45;;;;;;;1.07;0.97;;;20.30;38.70;;;23.91;25.94;99477.00;5099725;28;20063;-77
2021/12/24 05:25:14;;;;;;;1.20;1.10;;;20.30;38.70;;;23.88;25.99;99466.63;5079580;28;20051;-77
2021/12/24 05:27:40;;;;;;;1.27;1.15;;;20.30;38.70;;;23.90;25.78;99469.97;5078818;28;20093;-77
2021/12/24 05:30:06;;;;;;;1.08;1.00;;;20.30;38.70;;;23.92;25.87;99476.00;5114222;28;20487;-77
2021/12/24 05:32:35;;;;;;;1.00;0.90;;;20.30;38.70;;;23.86;25.92;99465.94;5078988;28;20051;-77
2021/12/24 05:35:01;;;;;;;1.10;1.10;;;20.30;38.70;;;23.89;25.80;99475.47;5091909;28;20044;-77
2021/12/24 05:37:30;;;;;;;1.45;1.20;;;20.30;38.80;;;23.91;25.76;99476.19;5113885;28;20552;-77
2021/12/24 05:39:55;;;;;;;1.10;1.00;;;20.30;38.70;;;23.93;25.97;99479.53;5061911;28;20579;-77
2021/12/24 05:42:31;;;;;;;1.50;1.40;;;20.30;38.70;;;23.90;25.78;99469.97;5094644;28;20043;-77
2021/12/24 05:45:03;;;;;;;1.00;0.98;;;20.30;38.70;;;23.95;25.72;99472.22;5079572;28;20055;-77
2021/12/24 05:47:47;;;;;;;1.15;1.05;;;20.30;38.80;;;23.95;25.85;99480.22;5085481;28;20054;-77
2021/12/24 05:50:13;;;;;;;0.93;0.93;;;20.30;39.20;;;23.92;25.76;99468.00;5078527;28;20050;-77
2021/12/24 05:52:42;;;;;;;1.05;1.05;;;20.30;38.70;;;23.96;25.88;99479.25;5096001;28;20054;-77
2021/12/24 05:55:20;;;;;;;0.85;0.85;;;20.30;38.70;;;23.95;25.72;99477.56;5080527;28;20192;-77
2021/12/24 05:57:49;;;;;;;1.08;0.95;;;20.30;38.70;;;23.95;25.66;99486.38;5078927;28;20047;-77
2021/12/24 06:00:16;;;;;;;1.05;1.00;;;20.30;38.70;;;23.95;25.77;99494.41;5060316;28;20057;-77
2021/12/24 06:02:47;;;;;;;0.90;0.90;;;20.30;38.70;;;23.95;25.78;99489.06;5078913;28;20072;-77
2021/12/24 06:05:13;;;;;;;1.20;1.10;;;20.30;38.70;;;23.97;25.94;99492.44;5095272;28;20043;-77
2021/12/24 06:07:39;;;;;;;1.30;1.20;;;20.30;38.70;;;23.95;26.00;99478.38;5061680;28;20046;-77
2021/12/24 06:10:07;;;;;;;1.05;1.02;;;20.40;38.80;;;23.93;25.92;99483.03;5095079;28;20177;-77
2021/12/24 06:12:34;;;;;;;1.17;1.08;;;20.30;38.70;;;23.95;25.86;99489.06;5094967;28;20055;-77
2021/12/24 06:15:05;;;;;;;1.13;1.02;;;20.30;38.70;;;23.95;25.92;99483.72;5095284;28;20078;-77
2021/12/24 06:17:33;;;;;;;1.13;1.02;;;20.40;38.70;;;23.93;25.88;99482.19;5096283;28;20491;-77
2021/12/24 06:19:59;;;;;;;1.17;1.08;;;20.40;38.80;;;23.95;25.92;99488.22;5093957;28;20055;-77
2021/12/24 06:22:25;;;;;;;1.45;1.05;;;20.40;38.70;;;23.95;25.87;99483.72;5095074;28;20123;-77
2021/12/24 06:24:51;;;;;;;1.30;1.20;;;20.40;38.70;;;23.96;25.80;99476.56;5113153;28;20433;-77
2021/12/24 06:27:16;;;;;;;1.00;1.00;;;20.40;38.70;;;23.94;25.70;99476.72;5076956;28;20048;-77
2021/12/24 06:29:42;;;;;;;1.17;1.08;;;20.40;38.70;;;23.95;25.84;99480.22;5112980;28;20043;-77
2021/12/24 06:32:08;;;;;;;1.15;1.00;;;20.40;38.70;;;23.98;25.97;99493.28;5060691;28;20043;-77
2021/12/24 06:34:34;;;;;;;0.98;0.98;;;20.30;38.60;;;23.98;25.77;99490.59;5076986;28;20056;-77
2021/12/24 06:37:00;;;;;;;0.95;0.93;;;20.40;38.70;;;23.99;25.72;99492.28;5112965;28;20074;-77
2021/12/24 06:39:26;;;;;;;1.02;0.93;;;20.40;38.70;;;24.00;25.69;99493.97;5077857;28;20066;-77
2021/12/24 06:41:53;;;;;;;1.20;1.10;;;20.40;38.70;;;23.98;25.78;99487.94;5093853;28;20048;-77
2021/12/24 06:44:20;;;;;;;1.17;1.08;;;20.40;38.70;;;23.99;25.72;99486.94;5078025;28;20139;-77
2021/12/24 06:46:47;;;;;;;1.08;1.08;;;20.40;38.70;;;23.95;25.94;99486.38;5094968;28;20099;-77
2021/12/24 06:49:13;;;;;;;1.17;1.00;;;20.40;38.80;;;23.95;25.86;99488.22;5077590;28;20048;-77
2021/12/24 06:51:39;;;;;;;1.10;1.10;;;20.40;38.70;;;23.98;25.74;99507.47;5078051;28;20043;-77
2021/12/24 06:54:05;;;;;;;1.30;1.20;;;20.40;38.70;;;23.99;25.78;99505.63;5094759;28;20058;-77
2021/12/24 06:56:32;;;;;;;0.93;0.90;;;20.40;38.70;;;23.97;25.84;99508.47;5061476;28;20379;-77
2021/12/24 06:58:58;;;;;;;0.80;0.80;;;20.40;38.70;;;23.98;25.82;99507.47;5097947;28;20486;-77
2021/12/24 07:01:24;;;;;;;0.90;0.90;;;20.40;38.70;;;23.99;25.68;99513.63;5098191;28;20044;-77
2021/12/24 07:03:51;;;;;;;1.10;1.00;;;20.40;38.70;;;23.98;25.73;99518.13;5098204;28;20495;-77
2021/12/24 07:06:17;;;;;;;0.90;0.90;;;20.40;38.70;;;23.99;25.62;99506.47;5098587;28;20043;-77
2021/12/24 07:08:43;;;;;;;1.00;0.90;;;20.40;38.70;;;23.98;25.63;99506.63;5064434;28;20040;-77
2021/12/24 07:11:09;;;;;;;0.90;0.90;;;20.40;38.70;;;23.97;25.88;99513.81;5081123;28;20105;-77
2021/12/24 07:13:35;;;;;;;1.08;1.05;;;20.40;38.70;;;23.98;25.68;99512.78;5098200;28;20054;-77
2021/12/24 07:16:00;;;;;;;1.10;1.00;;;20.40;38.70;;;23.98;25.75;99512.78;5097817;28;20135;-77
2021/12/24 07:18:26;;;;;;;0.80;0.80;;;20.40;38.70;;;24.00;25.82;99518.00;5097121;28;20380;-77
2021/12/24 07:20:52;;;;;;;0.98;0.90;;;20.40;38.70;;;24.00;25.94;99509.97;5098163;28;20047;-77
2021/12/24 07:23:18;;;;;;;1.00;0.95;;;20.40;38.70;;;24.01;25.87;99519.69;5098280;28;20101;-77
2021/12/24 07:25:45;;;;;;;1.00;1.00;;;20.40;38.70;;;24.00;25.88;99523.34;5116177;28;20052;-77
2021/12/24 07:28:11;;;;;;;0.88;0.88;;;20.40;38.70;;;24.02;25.76;99534.69;5081145;28;20100;-77
2021/12/24 07:30:37;;;;;;;1.30;1.20;;;20.40;38.70;;;23.99;25.87;99538.53;5096081;28;20052;-77
2021/12/24 07:33:03;;;;;;;0.90;0.90;;;20.40;38.70;;;24.00;25.75;99542.03;5116641;28;20043;-77
2021/12/24 07:35:29;;;;;;;1.25;1.15;;;20.40;38.70;;;24.02;25.98;99540.91;5097768;28;20406;-77
2021/12/24 07:37:54;;;;;;;0.80;0.80;;;20.40;38.70;;;24.01;25.76;99557.06;5097708;28;20108;-77
2021/12/24 07:40:20;;;;;;;1.10;1.00;;;20.40;38.70;;;24.02;25.83;99556.06;5095481;28;20048;-77
2021/12/24 07:42:47;;;;;;;1.00;1.00;;;20.40;38.70;;;24.03;25.61;99561.25;5080246;28;20094;-77
2021/12/24 07:45:16;;;;;;;0.98;0.98;;;20.40;38.70;;;23.99;25.68;99562.56;5096708;28;20080;-77
2021/12/24 07:47:43;;;;;;;1.20;1.10;;;20.40;38.70;;;24.03;25.75;99573.78;5096348;28;20430;-77
2021/12/24 07:52:56;;;;;;;0.80;0.80;;;20.40;38.70;;;24.03;25.81;99563.09;5083047;28;20395;-77
2021/12/24 07:55:22;;;;;;;1.00;1.00;;;20.40;38.70;;;24.04;25.76;99575.47;5080238;28;20055;-77
2021/12/24 07:57:51;;;;;;;1.45;0.98;;;20.40;38.70;;;24.04;25.69;99568.28;5097374;28;20047;-77
2021/12/24 08:00:18;;;;;;;0.98;0.90;;;20.40;38.70;;;24.03;25.82;99560.41;5115650;28;20074;-77
2021/12/24 08:02:45;;;;;;;1.10;1.00;;;20.40;38.70;;;24.05;25.82;99561.13;5097292;28;20071;-77
2021/12/24 08:05:14;;;;;;;0.90;0.90;;;20.40;38.60;;;24.04;25.77;99560.28;5097116;28;20483;-77
2021/12/24 08:07:40;;;;;;;1.15;1.05;;;20.40;38.70;;;24.04;25.82;99568.28;5080518;28;20399;-77
2021/12/24 08:10:06;;;;;;;0.88;0.88;;;20.40;38.60;;;24.05;25.81;99575.28;5078524;28;20054;-77
2021/12/24 08:12:32;;;;;;;0.98;0.98;;;20.40;38.60;;;24.03;25.60;99571.94;5080480;28;20044;-77
2021/12/24 08:14:58;;;;;;;0.90;0.90;;;20.40;38.60;;;24.01;25.84;99571.25;5115213;28;20548;-77
2021/12/24 08:17:24;;;;;;;1.00;1.00;;;20.40;38.70;;;24.02;25.65;99580.94;5080530;28;20046;-77
2021/12/24 08:19:49;;;;;;;1.23;1.20;;;20.40;38.70;;;24.03;25.65;99574.59;5096136;28;20488;-77
2021/12/24 08:22:15;;;;;;;0.90;0.90;;;20.40;38.60;;;24.05;25.84;99577.97;5095839;28;20442;-77
2021/12/24 08:24:41;;;;;;;1.10;1.02;;;20.40;38.60;;;23.99;25.75;99556.34;5094942;28;20138;-77
2021/12/24 08:27:08;;;;;;;0.90;0.90;;;20.40;38.70;;;24.03;25.87;99571.09;5079307;28;20459;-78
2021/12/24 08:29:36;;;;;;;0.80;0.80;;;20.40;38.60;;;24.00;25.71;99572.22;5095339;28;20434;-77
2021/12/24 08:32:03;;;;;;;1.48;1.10;;;20.40;38.60;;;24.01;25.85;99575.75;5077994;28;20407;-77
2021/12/24 08:34:30;;;;;;;0.80;0.80;;;20.40;38.60;;;24.05;25.76;99590.47;5096945;28;20044;-77
2021/12/24 08:36:56;;;;;;;1.05;0.98;;;20.40;38.60;;;24.05;25.57;99582.47;5096806;28;20176;-77
2021/12/24 08:39:22;;;;;;;1.17;1.08;;;20.40;38.60;;;24.03;25.62;99587.94;5078198;28;20056;-77
2021/12/24 08:41:52;;;;;;;0.90;0.90;;;20.40;38.70;;;24.03;25.79;99592.47;5080148;28;20040;-77
2021/12/24 08:44:18;;;;;;;1.00;1.00;;;20.40;38.60;;;24.01;25.95;99583.75;5097508;28;20105;-76
2021/12/24 08:46:44;;;;;;;0.93;0.93;;;20.40;39.20;;;24.05;25.91;99593.97;5079552;28;20391;-77
2021/12/24 08:49:10;;;;;;;1.15;1.00;;;20.40;38.60;;;24.01;25.73;99571.25;5115082;28;20048;-76
2021/12/24 08:51:36;;;;;;;1.00;1.00;;;20.40;38.60;;;24.05;25.82;99593.97;5096582;28;20059;-77
2021/12/24 08:54:02;;;;;;;0.90;0.90;;;20.40;38.70;;;24.03;25.86;99587.94;5079601;28;20052;-77
2021/12/24 08:56:28;;;;;;;1.17;0.95;;;20.40;38.60;;;24.05;25.91;99574.47;5079423;28;20047;-77
2021/12/24 08:58:54;;;;;;;1.27;1.10;;;20.40;38.60;;;24.05;25.70;99572.63;5096416;28;20039;-77
2021/12/24 09:01:20;;;;;;;0.80;0.80;;;20.40;38.60;;;24.05;25.78;99577.97;5079502;28;20123;-77
2021/12/24 09:03:45;;;;;;;0.93;0.93;;;20.40;38.60;;;24.08;25.74;99590.19;5096522;28;20056;-77
2021/12/24 09:06:11;;;;;;;0.93;0.80;;;20.40;38.60;;;24.07;25.74;99585.81;5079462;28;20445;-77
2021/12/24 09:08:42;;;;;;;0.80;0.80;;;20.50;38.70;;;24.07;25.67;99590.34;5077635;28;20555;-77
2021/12/24 09:11:08;;;;;;;1.07;0.97;;;20.50;38.60;;;24.08;25.64;99587.53;5080324;28;20517;-77
2021/12/24 09:13:33;;;;;;;1.17;1.08;;;20.40;38.60;;;24.07;25.73;99577.81;5096074;28;20483;-77
2021/12/24 09:16:00;;;;;;;1.40;1.30;;;20.50;38.60;;;24.08;25.77;99581.34;5079522;28;20048;-77
2021/12/24 09:18:26;;;;;;;0.95;0.95;;;20.50;38.60;;;24.08;25.78;99584.03;5077635;28;20044;-77
2021/12/24 09:20:54;;;;;;;0.85;0.85;;;20.50;38.60;;;24.07;25.82;99601.03;5113988;28;20503;-77
2021/12/24 09:23:20;;;;;;;1.10;1.00;;;20.50;38.60;;;24.07;25.70;99607.19;5079371;28;20039;-77
2021/12/24 09:25:46;;;;;;;0.77;0.77;;;20.40;38.60;;;24.04;25.52;99602.16;5095894;28;20139;-77
2021/12/24 09:28:11;;;;;;;0.98;0.98;;;20.50;38.70;;;24.10;25.79;99617.59;5094539;28;20185;-77
2021/12/24 09:30:38;;;;;;;0.95;0.90;;;20.50;38.70;;;24.09;25.80;99623.06;5079303;28;20048;-77
2021/12/24 09:33:05;;;;;;;0.90;0.90;;;20.40;38.60;;;24.02;25.83;99617.47;5078934;28;20562;-77
2021/12/24 09:35:31;;;;;;;0.70;0.70;;;20.50;38.60;;;24.09;25.77;99628.41;5095766;28;20487;-77
2021/12/24 09:37:58;;;;;;;1.02;0.90;;;20.50;38.60;;;24.08;25.84;99632.09;5094059;28;20094;-77
2021/12/24 09:40:25;;;;;;;1.08;0.98;;;20.50;38.60;;;24.06;25.83;99629.56;5095842;28;20073;-77
2021/12/24 09:42:52;;;;;;;0.88;0.80;;;20.50;38.60;;;24.08;25.93;99637.44;5114369;28;20411;-77
2021/12/24 09:45:18;;;;;;;1.00;0.88;;;20.40;38.60;;;24.07;25.62;99635.72;5094697;28;20446;-76
2021/12/24 09:47:44;;;;;;;0.90;0.90;;;20.50;38.60;;;24.10;25.83;99651.47;5078638;28;20047;-77
2021/12/24 09:50:16;;;;;;;1.02;0.93;;;20.50;38.70;;;24.09;25.61;99680.00;5093384;28;20377;-77
2021/12/24 09:52:44;;;;;;;0.90;0.90;;;20.40;38.60;;;24.10;25.71;99668.31;5095634;28;20048;-77
2021/12/24 09:55:15;;;;;;;0.73;0.73;;;20.50;38.60;;;24.07;25.72;99671.28;5078789;28;20061;-77
2021/12/24 09:57:42;;;;;;;0.90;0.90;;;20.40;38.60;;;24.10;25.83;99665.66;5095648;28;20048;-77
2021/12/24 10:00:11;;;;;;;0.95;0.95;;;20.50;38.70;;;24.12;25.75;99671.69;5094983;28;20047;-77
2021/12/24 10:02:45;;;;;;;0.80;0.80;;;20.50;38.60;;;24.10;25.78;99660.31;5095854;28;20075;-77
2021/12/24 10:05:30;;;;;;;;;;;20.50;38.70;;;24.24;25.63;99661.69;5096014;28;20052;-77
2021/12/24 10:08:15;;;;;;;0.80;0.80;;;20.50;38.70;;;24.11;25.77;99655.84;5095610;28;20013;-77
2021/12/24 10:10:44;;;;;;;1.08;1.00;;;20.50;38.60;;;24.11;25.81;99650.50;5078366;28;20048;-77
2021/12/24 10:13:46;;;;;;;0.90;0.90;;;20.50;38.60;;;24.12;25.67;99676.19;5095254;28;20074;-77
2021/12/24 10:16:18;;;;;;;0.90;0.90;;;20.50;38.60;;;24.11;25.71;99671.84;5095233;28;20063;-78
2021/12/24 10:18:48;;;;;;;;;;;20.50;38.70;;;24.15;25.59;99665.22;5113821;28;20394;-77
2021/12/24 10:21:18;;;;;;;1.02;1.00;;;20.50;38.60;;;24.09;25.54;99655.97;5095321;28;20298;-77
2021/12/24 10:23:59;;;;;;;0.90;0.90;;;20.50;38.60;;;24.11;25.82;99670.03;5078878;28;20052;-77
2021/12/24 10:26:53;;;;;;;0.85;0.85;;;20.50;38.60;;;24.12;25.75;99676.19;5095426;28;20035;-77
2021/12/24 10:29:34;;;;;;;0.70;0.70;;;20.50;39.20;;;24.09;25.76;99674.66;5077118;28;20075;-77
2021/12/24 10:32:20;;;;;;;1.00;1.00;;;20.50;38.60;;;24.12;25.93;99673.53;5091993;28;20086;-77
2021/12/24 10:34:46;;;;;;;1.00;0.90;;;20.50;38.60;;;24.12;25.81;99681.53;5078166;28;20043;-77
2021/12/24 10:37:18;;;;;;;0.90;0.90;;;20.50;38.60;;;24.11;25.73;99680.69;5076968;28;20139;-77
2021/12/24 10:39:50;;;;;;;1.10;1.00;;;20.50;38.60;;;24.11;25.77;99682.53;5077656;28;20150;-77
2021/12/24 10:42:38;;;;;;;0.88;0.88;;;20.50;38.60;;;24.11;25.76;99682.53;5113212;28;20514;-77
2021/12/24 10:45:15;;;;;;;0.80;0.80;;;20.50;38.60;;;24.09;25.80;99679.16;5078623;28;20051;-77
2021/12/24 10:47:42;;;;;;;0.85;0.85;;;20.50;38.60;;;24.14;25.58;99690.25;5094457;28;20044;-77
2021/12/24 10:53:12;;;;;;;0.88;0.80;;;20.50;38.60;;;24.09;25.70;99676.47;5078095;28;20540;-77
2021/12/24 10:55:52;;;;;;;1.00;0.95;;;20.50;38.60;;;24.08;25.82;99664.97;5097047;28;20058;-77
2021/12/24 10:58:22;;;;;;;0.80;0.80;;;20.50;38.60;;;24.11;25.84;99682.53;5094491;28;20127;-77
2021/12/24 11:00:53;;;;;;;0.80;0.80;;;20.50;38.60;;;24.07;25.52;99673.94;5077949;28;20142;-77
2021/12/24 11:03:24;;;;;;;0.90;0.90;;;20.50;38.60;;;24.09;25.52;99673.81;5113156;28;20517;-77
2021/12/24 11:05:54;;;;;;;0.80;0.77;;;20.50;38.60;;;24.12;25.81;99674.34;5094659;28;20044;-77
2021/12/24 11:08:27;;;;;;;1.02;1.00;;;20.50;38.60;;;24.11;25.59;99671.84;5077562;28;20051;-77
2021/12/24 11:10:57;;;;;;;0.95;0.95;;;20.50;38.60;;;24.10;25.77;99679.00;5094585;28;20105;-77
2021/12/24 11:13:33;;;;;;;0.70;0.70;;;20.50;38.60;;;24.11;25.54;99672.69;5073904;28;20047;-77
2021/12/24 11:16:02;;;;;;;0.90;0.90;;;20.50;38.50;;;24.14;25.67;99683.09;5074887;28;20381;-77
2021/12/24 11:18:33;;;;;;;0.82;0.80;;;20.50;38.50;;;24.11;25.68;99677.19;5094617;28;20100;-77
2021/12/24 11:21:09;;;;;;;;;;;20.50;38.60;;;24.27;25.50;99689.94;5095400;28;20043;-77
2021/12/24 11:23:39;;;;;;;0.80;0.80;;;20.50;38.50;;;24.19;25.63;99696.84;5076965;28;20359;-77
2021/12/24 11:26:09;;;;;;;0.95;0.90;;;20.60;38.50;;;24.18;25.54;99708.50;5094254;28;20059;-77
2021/12/24 11:28:37;;;;;;;0.80;0.80;;;20.50;38.50;;;24.17;25.57;99711.31;5094160;28;20055;-77
2021/12/24 11:31:10;;;;;;;0.70;0.70;;;20.60;38.60;;;24.13;25.67;99709.94;5093266;28;20483;-77
2021/12/24 11:33:39;;;;;;;0.85;0.85;;;20.50;38.50;;;24.15;25.83;99718.63;5094433;28;20066;-77
2021/12/24 11:36:07;;;;;;;0.80;0.80;;;20.50;38.50;;;24.14;25.74;99717.81;5112356;28;20052;-77
2021/12/24 11:38:46;;;;;;;0.90;0.90;;;20.50;38.50;;;24.14;25.70;99719.63;5092906;28;20060;-77
2021/12/24 11:41:15;;;;;;;0.93;0.93;;;20.50;38.50;;;24.12;25.63;99717.09;5094215;28;20113;-77
2021/12/24 11:43:49;;;;;;;0.77;0.77;;;20.50;38.60;;;24.11;25.71;99718.09;5095169;28;20051;-77
2021/12/24 11:46:19;;;;;;;0.77;0.77;;;20.50;38.60;;;24.13;25.67;99720.63;5079163;28;20098;-77
2021/12/24 11:48:48;;;;;;;0.80;0.80;;;20.50;38.60;;;24.14;25.57;99720.47;5090811;28;20049;-77
2021/12/24 11:51:24;;;;;;;1.00;1.00;;;20.50;38.60;;;24.09;25.74;99714.72;5080655;28;20047;-77
2021/12/24 11:53:53;;;;;;;0.80;0.80;;;20.50;38.60;;;24.12;25.67;99724.25;5079473;28;20055;-77
2021/12/24 11:56:21;;;;;;;1.10;1.00;;;20.50;38.60;;;24.13;25.76;99723.28;5097237;28;20044;-77
2021/12/24 11:58:51;;;;;;;0.90;0.90;;;20.50;38.60;;;24.12;25.85;99725.09;5115829;28;20051;-77